Brant — 5BBK2 — position and weather

sailwx.info

Track history (hours):
 
Tides and Currents Weather Stations Pressure Air Temp Water Temp Dewpoint Dewpoint Depression Visibility Wind Speed Wind Dir Waves Ship Positions

Brant

Last reported at 2017-Feb-25 00:28 UTC. Time now 2017-Feb-27 20:38 UTC.
Position N 09°11' W 079°52'.

Length 185 m; draft 10.4 m.

Type: Cargo ship. MMSI: 212372000.

Date/timePositionNaut miles runAvg speedWind from/ knotsBaromVisibWave heightAir tempDewpointWater temp
2017-Feb-25 00:28N 09°11' W 079°52'6 7.0
2017-Feb-24 23:33N 09°16' W 079°55'0 0.4
2017-Feb-24 22:33N 09°17' W 079°55'4 3.7
2017-Feb-24 21:33N 09°20' W 079°55'2 1.8
2017-Feb-24 20:31N 09°22' W 079°56'0 0.0
2017-Feb-24 19:31N 09°22' W 079°56'0 0.0
2017-Feb-24 18:31N 09°22' W 079°56'0 0.1
2017-Feb-24 17:28N 09°22' W 079°56'0 0.1
2017-Feb-24 16:28N 09°22' W 079°56'0 0.0
2017-Feb-24 15:28N 09°22' W 079°56'0 0.0
2017-Feb-24 14:31N 09°22' W 079°56'0 0.0
2017-Feb-24 13:28N 09°22' W 079°56'0 0.0
2017-Feb-24 12:28N 09°22' W 079°56'0 0.0
2017-Feb-24 11:28N 09°22' W 079°56'0 0.0
2017-Feb-24 10:28N 09°22' W 079°56'0 0.0
2017-Feb-24 09:31N 09°22' W 079°56'0 0.0
2017-Feb-24 08:31N 09°22' W 079°56'0 0.0
2017-Feb-24 07:28N 09°22' W 079°56'0 0.1
2017-Feb-24 06:31N 09°22' W 079°56'0 0.1
2017-Feb-24 05:31N 09°22' W 079°56'0 0.0
2017-Feb-24 04:31N 09°22' W 079°56'0 0.1
2017-Feb-24 03:31N 09°22' W 079°56'4 4.0
2017-Feb-24 02:33N 09°26' W 079°55'  
2017-Feb-19 08:33N 28°09' W 089°01'  
Track history (hours):
 
Tides and Currents Weather Stations Pressure Air Temp Water Temp Dewpoint Dewpoint Depression Visibility Wind Speed Wind Dir Waves Ship Positions

Brant

Last reported at 2017-Feb-25 00:28 UTC. Time now 2017-Feb-27 20:38 UTC.
Position N 09°11' W 079°52'.

Length 185 m; draft 10.4 m.

Type: Cargo ship. MMSI: 212372000.

Date/timePositionNaut miles runAvg speedWind from/ knotsBaromVisibWave heightAir tempDewpointWater temp
2017-Feb-25 00:28N 09°11' W 079°52'6 7.0
2017-Feb-24 23:33N 09°16' W 079°55'0 0.4
2017-Feb-24 22:33N 09°17' W 079°55'4 3.7
2017-Feb-24 21:33N 09°20' W 079°55'2 1.8
2017-Feb-24 20:31N 09°22' W 079°56'0 0.0
2017-Feb-24 19:31N 09°22' W 079°56'0 0.0
2017-Feb-24 18:31N 09°22' W 079°56'0 0.1
2017-Feb-24 17:28N 09°22' W 079°56'0 0.1
2017-Feb-24 16:28N 09°22' W 079°56'0 0.0
2017-Feb-24 15:28N 09°22' W 079°56'0 0.0
2017-Feb-24 14:31N 09°22' W 079°56'0 0.0
2017-Feb-24 13:28N 09°22' W 079°56'0 0.0
2017-Feb-24 12:28N 09°22' W 079°56'0 0.0
2017-Feb-24 11:28N 09°22' W 079°56'0 0.0
2017-Feb-24 10:28N 09°22' W 079°56'0 0.0
2017-Feb-24 09:31N 09°22' W 079°56'0 0.0
2017-Feb-24 08:31N 09°22' W 079°56'0 0.0
2017-Feb-24 07:28N 09°22' W 079°56'0 0.1
2017-Feb-24 06:31N 09°22' W 079°56'0 0.1
2017-Feb-24 05:31N 09°22' W 079°56'0 0.0
2017-Feb-24 04:31N 09°22' W 079°56'0 0.1
2017-Feb-24 03:31N 09°22' W 079°56'4 4.0
2017-Feb-24 02:33N 09°26' W 079°55'  
2017-Feb-19 08:33N 28°09' W 089°01'  

Dump ship's entire track history